Time;durP1;ratioP1;P1;durP2;ratioP2;P2;SDS_P1;SDS_P2;PMS_P1;PMS_P2;Temp;Humidity;BMP_temperature;BMP_pressure;BME280_temperature;BME280_humidity;BME280_pressure;Samples;Min_cycle;Max_cycle;Signal;HPM_P1;HPM_P2
2023/05/23 00:00:54;;;;;;;25.37;17.13;;;;;;;13.83;100.00;101916.13;5082858;28;20944;-75
2023/05/23 00:03:23;;;;;;;26.90;17.47;;;;;;;11.91;100.00;101558.59;5081990;28;20182;-76
2023/05/23 00:05:50;;;;;;;22.37;14.70;;;;;;;13.38;100.00;101786.16;5075822;28;20652;-77
2023/05/23 00:08:16;;;;;;;28.13;15.27;;;;;;;12.94;100.00;101722.53;5058646;28;20456;-77
2023/05/23 00:10:41;;;;;;;21.30;13.50;;;;;;;12.68;100.00;101720.44;5075577;28;20969;-77
2023/05/23 00:13:11;;;;;;;24.83;13.60;;;;;;;11.86;100.00;101520.72;5056655;28;20437;-76
2023/05/23 00:15:41;;;;;;;22.17;12.53;;;;;;;12.62;100.00;101717.47;5082800;28;20541;-76
2023/05/23 00:18:10;;;;;;;17.93;11.33;;;;;;;13.55;100.00;101799.16;5084006;28;20445;-76
2023/05/23 00:20:39;;;;;;;19.23;11.87;;;;;;;11.91;100.00;101498.63;5082427;28;20458;-77
2023/05/23 00:23:06;;;;;;;25.20;10.80;;;;;;;14.46;100.00;101944.03;5061645;28;20436;-76
2023/05/23 00:25:35;;;;;;;15.90;9.87;;;;;;;13.48;100.00;101817.16;5073371;28;20442;-80
2023/05/23 00:28:01;;;;;;;14.10;8.67;;;;;;;12.21;100.00;101545.91;5059470;28;20467;-82
2023/05/23 00:30:29;;;;;;;14.90;8.30;;;;;;;13.45;100.00;101743.91;5076561;28;20459;-76
2023/05/23 00:32:54;;;;;;;13.53;8.50;;;;;;;12.44;100.00;101642.56;5082129;28;20443;-79
2023/05/23 00:35:20;;;;;;;18.70;8.50;;;;;;;12.05;100.00;101540.75;5080887;28;20441;-78
2023/05/23 00:37:50;;;;;;;17.03;9.67;;;;;;;13.57;100.00;101782.81;5082527;28;20194;-77
2023/05/23 00:40:19;;;;;;;12.83;7.97;;;;;;;13.12;100.00;101741.75;5076360;28;20285;-76
2023/05/23 00:42:44;;;;;;;21.20;10.00;;;;;;;12.63;100.00;101673.38;5075978;28;20443;-76
2023/05/23 00:45:13;;;;;;;20.87;9.93;;;;;;;12.21;100.00;101582.72;5077552;28;20878;-77
2023/05/23 00:47:39;;;;;;;18.83;9.07;;;;;;;12.54;100.00;101661.06;5056882;28;20199;-75
2023/05/23 00:50:08;;;;;;;23.60;10.07;;;;;;;13.88;100.00;101860.59;5080587;28;20455;-78
2023/05/23 00:52:34;;;;;;;21.53;9.77;;;;;;;12.63;100.00;101719.13;5077584;28;20440;-76
2023/05/23 00:55:00;;;;;;;15.93;8.97;;;;;;;12.92;100.00;101767.66;5060572;28;20445;-77
2023/05/23 00:57:26;;;;;;;17.53;9.07;;;;;;;13.01;100.00;101755.75;5081552;28;20509;-76
2023/05/23 00:59:52;;;;;;;19.77;9.00;;;;;;;13.55;100.00;101879.19;5080607;28;21142;-76
2023/05/23 01:02:20;;;;;;;16.00;9.00;;;;;;;12.84;100.00;101725.53;5082453;28;20513;-84
2023/05/23 01:04:53;;;;;;;12.87;8.13;;;;;;;12.93;100.00;101780.09;5082249;28;20186;-76
2023/05/23 01:07:18;;;;;;;18.30;10.07;;;;;;;12.04;100.00;101610.88;5078221;28;20519;-75
2023/05/23 01:09:44;;;;;;;19.17;9.03;;;;;;;12.50;100.00;101678.63;5069576;28;20440;-75
2023/05/23 01:12:33;;;;;;;16.97;9.60;;;;;;;12.40;100.00;101694.22;5065658;28;20175;-81
2023/05/23 01:15:07;;;;;;;17.07;10.00;;;;;;;12.61;100.00;101737.34;5080202;28;20512;-77
2023/05/23 01:18:09;;;;;;;18.73;10.47;;;;;;;14.40;100.00;102033.91;5076498;28;20419;-77
2023/05/23 01:20:40;;;;;;;14.40;10.67;;;;;;;12.12;100.00;101707.53;5074003;28;21063;-82
2023/05/23 01:23:34;;;;;;;16.43;11.03;;;;;;;14.22;100.00;102029.81;5078723;28;20445;-77
2023/05/23 01:26:18;;;;;;;19.70;12.30;;;;;;;12.04;100.00;101649.34;5071823;28;20459;-77
2023/05/23 01:28:47;;;;;;;15.67;11.23;;;;;;;13.52;100.00;101939.72;5054040;28;20443;-78
2023/05/23 01:31:16;;;;;;;27.90;11.80;;;;;;;12.25;100.00;101720.34;5077292;28;20530;-80
2023/05/23 01:33:44;;;;;;;25.83;10.40;;;;;;;12.03;100.00;101706.00;5076731;28;20551;-77
2023/05/23 01:36:13;;;;;;;20.17;11.60;;;;;;;13.09;100.00;101861.50;5078924;28;20445;-85
2023/05/23 01:38:38;;;;;;;21.90;11.20;;;;;;;12.58;100.00;101820.28;5081561;28;20527;-81
2023/05/23 01:41:04;;;;;;;22.70;11.47;;;;;;;12.88;100.00;101850.69;5080117;28;20993;-79
2023/05/23 01:43:29;;;;;;;24.27;11.63;;;;;;;12.44;100.00;101787.84;5062528;28;20182;-79
2023/05/23 01:45:56;;;;;;;21.50;10.90;;;;;;;12.81;100.00;101828.22;5080937;28;20579;-78
2023/05/23 01:48:23;;;;;;;18.13;10.80;;;;;;;11.81;100.00;101636.00;5076716;28;20238;-80
2023/05/23 01:50:49;;;;;;;21.30;10.90;;;;;;;11.62;100.00;101656.22;5080002;28;20464;-78
2023/05/23 01:53:21;;;;;;;20.80;11.33;;;;;;;12.94;100.00;101884.13;5058039;28;20482;-81
2023/05/23 01:55:47;;;;;;;15.70;9.63;;;;;;;12.48;100.00;101792.84;5083823;28;20521;-77
2023/05/23 01:58:13;;;;;;;22.07;10.63;;;;;;;12.44;100.00;101787.84;5064443;28;20437;-83
2023/05/23 02:00:38;;;;;;;20.40;10.40;;;;;;;12.47;100.00;101804.63;5084708;28;20509;-80
2023/05/23 02:03:04;;;;;;;21.80;11.40;;;;;;;13.36;100.00;101957.97;5082598;28;20706;-80
2023/05/23 02:05:30;;;;;;;18.07;10.43;;;;;;;12.38;100.00;101806.56;5075272;28;20530;-79
2023/05/23 02:07:55;;;;;;;19.30;9.40;;;;;;;13.14;100.00;101911.28;5085667;28;20519;-78
2023/05/23 02:10:21;;;;;;;16.60;8.97;;;;;;;11.94;100.00;101746.41;5082417;28;20813;-80
2023/05/23 02:12:47;;;;;;;13.03;8.20;;;;;;;12.17;100.00;101727.47;5060451;28;20188;-76
2023/05/23 02:15:12;;;;;;;19.67;8.40;;;;;;;14.01;100.00;102068.41;5084017;28;20482;-80
2023/05/23 02:17:38;;;;;;;18.27;8.67;;;;;;;12.25;100.00;101801.88;5080879;28;20677;-77
2023/05/23 02:20:05;;;;;;;14.80;7.30;;;;;;;12.09;100.00;101740.19;5082056;28;20702;-80
2023/05/23 02:22:30;;;;;;;15.77;9.00;;;;;;;12.37;100.00;101831.81;5057928;28;20178;-77
2023/05/23 02:24:56;;;;;;;13.70;6.13;;;;;;;12.51;100.00;101849.00;5078845;28;20529;-81
2023/05/23 02:27:21;;;;;;;14.40;7.20;;;;;;;11.54;100.00;101662.53;5085778;28;20279;-78
2023/05/23 02:29:47;;;;;;;10.90;6.77;;;;;;;11.92;100.00;101786.13;5077265;28;20180;-78
2023/05/23 02:32:12;;;;;;;17.70;7.80;;;;;;;12.29;100.00;101829.22;5084896;28;20175;-76
2023/05/23 02:34:39;;;;;;;12.63;6.90;;;;;;;12.54;100.00;101889.81;5081384;28;20195;-82
2023/05/23 02:37:04;;;;;;;10.13;5.30;;;;;;;12.14;100.00;101819.31;5081980;28;20203;-78
2023/05/23 02:39:30;;;;;;;14.90;5.93;;;;;;;11.45;100.00;101701.22;5079216;28;20933;-79
2023/05/23 02:41:55;;;;;;;13.67;5.67;;;;;;;11.30;100.00;101693.16;5081364;28;20178;-79
2023/05/23 02:44:20;;;;;;;17.83;7.20;;;;;;;11.42;100.00;101698.91;5063865;28;20186;-78
2023/05/23 02:46:46;;;;;;;9.33;5.67;;;;;;;11.91;100.00;101823.91;5083772;28;20880;-78
2023/05/23 02:49:11;;;;;;;14.50;6.27;;;;;;;11.40;100.00;101756.50;5084038;28;20179;-79
2023/05/23 02:51:37;;;;;;;14.50;6.90;;;;;;;13.55;100.00;102051.72;5079781;28;20229;-82
2023/05/23 02:54:02;;;;;;;15.87;7.97;;;;;;;11.14;100.00;101743.47;5080229;28;20179;-80
2023/05/23 02:56:28;;;;;;;13.27;7.07;;;;;;;10.94;100.00;101724.38;5083735;28;20190;-84
2023/05/23 02:58:53;;;;;;;13.67;6.40;;;;;;;11.11;100.00;101668.66;5080148;28;20179;-81
2023/05/23 03:01:19;;;;;;;21.57;7.90;;;;;;;11.27;100.00;101770.56;5081487;28;20199;-80
2023/05/23 03:03:45;;;;;;;20.03;8.30;;;;;;;13.16;100.00;102039.34;5078620;28;20194;-78
2023/05/23 03:06:13;;;;;;;19.63;8.30;;;;;;;11.31;100.00;101745.00;5080748;28;20220;-86
2023/05/23 03:08:42;;;;;;;22.87;8.83;;;;;;;11.23;100.00;101742.41;5079861;28;20182;-78
2023/05/23 03:11:08;;;;;;;17.30;8.30;;;;;;;10.49;100.00;101634.78;5081953;28;20561;-85
2023/05/23 03:13:36;;;;;;;15.17;8.13;;;;;;;11.65;100.00;101827.81;5066603;28;20976;-85
2023/05/23 03:16:02;;;;;;;14.63;6.77;;;;;;;11.69;100.00;101849.81;5086491;28;20990;-80
2023/05/23 03:18:27;;;;;;;23.53;8.20;;;;;;;11.47;100.00;101838.91;5091182;28;20424;-83
2023/05/23 03:20:53;;;;;;;17.87;7.97;;;;;;;11.62;100.00;101832.72;5073451;28;20198;-79
2023/05/23 03:23:18;;;;;;;17.97;7.30;;;;;;;11.76;100.00;101899.97;5088019;28;20228;-82
2023/05/23 03:25:44;;;;;;;20.03;7.33;;;;;;;11.48;100.00;101862.03;5090294;28;20660;-79
2023/05/23 03:28:11;;;;;;;16.40;7.90;;;;;;;10.43;100.00;101676.56;5092734;28;20694;-78
2023/05/23 03:30:36;;;;;;;11.80;5.50;;;;;;;10.94;100.00;101803.03;5069481;28;20210;-84
2023/05/23 03:33:02;;;;;;;16.20;7.17;;;;;;;10.80;100.00;101820.72;5083754;28;21381;-83
2023/05/23 03:35:27;;;;;;;17.43;6.60;;;;;;;11.87;100.00;102019.72;5082137;28;20190;-81
2023/05/23 03:37:53;;;;;;;13.37;6.23;;;;;;;10.86;100.00;101868.31;5090843;28;20565;-78
2023/05/23 03:40:18;;;;;;;15.37;6.23;;;;;;;11.88;100.00;102068.94;5089094;28;20202;-79
2023/05/23 03:42:44;;;;;;;16.80;6.10;;;;;;;11.44;100.00;102003.13;5089955;28;20284;-79
2023/05/23 03:45:10;;;;;;;17.17;5.60;;;;;;;10.56;100.00;101885.25;5089516;28;20185;-82
2023/05/23 03:47:35;;;;;;;17.90;6.63;;;;;;;11.21;100.00;102003.06;5090377;28;20237;-78
2023/05/23 03:50:01;;;;;;;22.35;6.65;;;;;;;12.82;100.00;102253.47;5102063;22;20452;-69
2023/05/23 03:52:26;;;;;;;14.13;6.20;;;;;;;12.78;100.00;102237.84;5080716;28;20287;-67
2023/05/23 03:54:51;;;;;;;13.37;5.40;;;;;;;12.82;100.00;102250.78;5089817;28;20183;-68
2023/05/23 03:57:17;;;;;;;14.07;5.90;;;;;;;13.03;100.00;102258.19;5089406;28;20224;-68
2023/05/23 03:59:42;;;;;;;14.60;5.80;;;;;;;12.88;100.00;102265.38;5083417;28;20190;-68
2023/05/23 04:02:08;;;;;;;17.07;5.63;;;;;;;12.85;100.00;102287.28;5089724;28;20212;-68
2023/05/23 04:04:33;;;;;;;13.97;5.40;;;;;;;12.91;100.00;102274.97;5079707;28;20227;-68
2023/05/23 04:07:00;;;;;;;13.27;5.37;;;;;;;12.68;100.00;102239.94;5081163;28;20198;-67
2023/05/23 04:09:25;;;;;;;14.30;6.20;;;;;;;12.76;100.00;102264.97;5076706;28;20440;-67
2023/05/23 04:11:51;;;;;;;11.67;4.90;;;;;;;12.84;100.00;102286.44;5070529;28;20471;-67
2023/05/23 04:14:19;;;;;;;14.83;4.70;;;;;;;12.52;100.00;102248.94;5080984;28;20189;-67
2023/05/23 04:16:44;;;;;;;12.67;5.03;;;;;;;12.80;100.00;102298.56;5077924;28;20586;-67
2023/05/23 04:19:11;;;;;;;12.00;4.60;;;;;;;12.93;100.00;102314.16;5078001;28;20440;-68
2023/05/23 04:21:36;;;;;;;10.50;5.00;;;;;;;12.63;100.00;102276.28;5080645;28;20215;-68
2023/05/23 04:24:02;;;;;;;11.57;4.97;;;;;;;12.80;100.00;102330.88;5075948;28;20843;-68
2023/05/23 04:26:27;;;;;;;10.77;4.40;;;;;;;12.74;100.00;102307.38;5075386;28;20563;-67
2023/05/23 04:28:53;;;;;;;12.13;5.07;;;;;;;12.80;100.00;102312.03;5083471;28;20664;-68
2023/05/23 04:31:22;;;;;;;11.43;5.23;;;;;;;12.87;100.00;102296.00;5083258;28;20217;-67
2023/05/23 04:33:48;;;;;;;14.50;5.30;;;;;;;13.02;100.00;102301.47;5077044;28;20182;-67
2023/05/23 04:36:13;;;;;;;10.33;4.50;;;;;;;12.87;100.00;102322.94;5086863;28;20944;-67
2023/05/23 04:38:39;;;;;;;12.63;4.17;;;;;;;12.77;100.00;102298.94;5089381;28;20252;-68
2023/05/23 04:41:06;;;;;;;18.03;5.67;;;;;;;13.00;100.00;102339.34;5059219;28;20210;-68
2023/05/23 04:43:32;;;;;;;11.73;4.33;;;;;;;13.06;100.00;102352.09;5080538;28;20914;-69
2023/05/23 04:46:01;;;;;;;9.80;3.83;;;;;;;12.70;100.00;102321.34;5077489;28;20440;-69
2023/05/23 04:48:26;;;;;;;10.00;3.90;;;;;;;12.84;100.00;102356.47;5083117;28;20545;-69
2023/05/23 04:50:54;;;;;;;9.33;3.60;;;;;;;12.85;100.00;102366.22;5073612;28;20468;-68
2023/05/23 04:53:20;;;;;;;11.77;3.73;;;;;;;12.89;100.00;102370.22;5088428;28;20261;-69
2023/05/23 04:55:45;;;;;;;12.90;3.70;;;;;;;12.68;100.00;102378.06;5089159;28;20420;-69
2023/05/23 04:58:11;;;;;;;7.87;3.13;;;;;;;12.81;100.00;102367.56;5087915;28;20273;-69
2023/05/23 05:00:37;;;;;;;10.87;3.90;;;;;;;11.60;100.00;102176.03;5087645;28;20213;-69
2023/05/23 05:03:02;;;;;;;9.77;3.23;;;;;;;12.92;100.00;102389.75;5089881;28;20462;-69
2023/05/23 05:05:28;;;;;;;11.00;3.63;;;;;;;12.81;100.00;102383.72;5089289;28;20834;-68
2023/05/23 05:07:53;;;;;;;11.73;2.97;;;;;;;12.48;100.00;102366.03;5070639;28;20228;-69
2023/05/23 05:10:19;;;;;;;7.97;3.50;;;;;;;12.58;100.00;102399.84;5089231;28;20206;-69
2023/05/23 05:12:48;;;;;;;12.50;3.43;;;;;;;12.88;100.00;102440.44;5089841;28;20178;-69
2023/05/23 05:15:16;;;;;;;10.27;3.97;;;;;;;12.89;100.00;102453.69;5085533;28;20914;-69
2023/05/23 05:17:41;;;;;;;13.17;3.00;;;;;;;12.89;100.00;102464.47;5075621;28;20622;-69
2023/05/23 05:20:08;;;;;;;12.50;3.23;;;;;;;12.60;100.00;102440.00;5079691;28;20883;-69
2023/05/23 05:22:35;;;;;;;13.30;3.70;;;;;;;12.87;100.00;102474.59;5062979;28;20190;-69
2023/05/23 05:25:02;;;;;;;15.53;4.00;;;;;;;12.55;100.00;102506.97;5086026;28;20475;-68
2023/05/23 05:27:28;;;;;;;12.53;4.07;;;;;;;12.62;100.00;102514.22;5088598;28;20460;-69
2023/05/23 05:29:57;;;;;;;13.60;3.90;;;;;;;12.55;100.00;102498.91;5086729;28;20509;-68
2023/05/23 05:32:22;;;;;;;9.17;3.37;;;;;;;12.48;100.00;102461.06;5090173;28;20186;-68
2023/05/23 05:34:49;;;;;;;9.90;4.47;;;;;;;12.33;100.00;102473.56;5090650;28;20902;-68
2023/05/23 05:37:15;;;;;;;15.40;3.93;;;;;;;12.66;100.00;102525.47;5089931;28;20215;-68
2023/05/23 05:39:41;;;;;;;11.50;3.83;;;;;;;12.72;100.00;102549.00;5075372;28;20524;-68
2023/05/23 05:42:06;;;;;;;11.80;3.80;;;;;;;12.50;100.00;102529.03;5093760;28;20209;-68
2023/05/23 05:44:32;;;;;;;12.83;4.27;;;;;;;11.93;100.00;102438.44;5082656;28;20268;-68
2023/05/23 05:46:57;;;;;;;11.87;4.37;;;;;;;12.67;100.00;102551.41;5066989;28;20264;-69
2023/05/23 05:49:22;;;;;;;16.33;5.37;;;;;;;12.58;100.00;102580.19;5070939;28;20194;-68
2023/05/23 05:51:48;;;;;;;18.57;5.63;;;;;;;12.51;100.00;102587.22;5082433;28;20210;-69
2023/05/23 05:54:13;;;;;;;9.90;4.80;;;;;;;12.27;100.00;102534.28;5082581;28;20178;-67
2023/05/23 05:56:41;;;;;;;12.70;4.67;;;;;;;12.21;100.00;102538.47;5078273;28;20178;-69
2023/05/23 05:59:06;;;;;;;16.20;5.27;;;;;;;12.53;100.00;102584.38;5083230;28;20273;-68
2023/05/23 06:01:33;;;;;;;12.83;4.53;;;;;;;12.07;100.00;102528.38;5082237;28;20464;-69
2023/05/23 06:03:59;;;;;;;10.17;4.47;;;;;;;12.50;100.00;102587.38;5083072;28;20970;-68
2023/05/23 06:06:25;;;;;;;14.07;4.70;;;;;;;12.05;100.00;102551.06;5079284;28;20520;-68
2023/05/23 06:08:50;;;;;;;17.13;4.40;;;;;;;12.59;100.00;102610.63;5082035;28;20864;-68
2023/05/23 06:11:16;;;;;;;14.17;4.77;;;;;;;12.13;100.00;102567.22;5084082;28;20263;-68
2023/05/23 06:13:41;;;;;;;9.23;4.20;;;;;;;12.02;100.00;102597.97;5082964;28;20317;-68
2023/05/23 06:16:07;;;;;;;7.13;4.07;;;;;;;12.35;100.00;102662.56;5091369;28;20188;-68
2023/05/23 06:18:32;;;;;;;6.90;3.83;;;;;;;12.60;100.00;102672.34;5082370;28;20190;-68
2023/05/23 06:20:58;;;;;;;7.90;3.47;;;;;;;12.42;100.00;102680.59;5080759;28;20285;-68
2023/05/23 06:23:23;;;;;;;12.67;4.53;;;;;;;12.59;100.00;102675.22;5065846;28;20195;-68
2023/05/23 06:25:49;;;;;;;12.80;4.97;;;;;;;12.47;100.00;102684.63;5082690;28;20571;-69
2023/05/23 06:28:14;;;;;;;10.30;4.47;;;;;;;11.84;100.00;102565.81;5083878;28;20675;-68
2023/05/23 06:30:40;;;;;;;12.57;4.27;;;;;;;12.50;100.00;102673.50;5064265;28;20222;-68
2023/05/23 06:33:05;;;;;;;10.67;3.80;;;;;;;12.12;100.00;102679.38;5084143;28;20198;-69
2023/05/23 06:35:31;;;;;;;11.23;3.23;;;;;;;12.37;100.00;102698.22;5064483;28;20285;-68
2023/05/23 06:37:56;;;;;;;8.40;2.70;;;;;;;12.22;100.00;102695.34;5084048;28;20262;-68
2023/05/23 06:40:21;;;;;;;7.03;2.87;;;;;;;12.24;100.00;102687.09;5077009;28;20206;-69
2023/05/23 06:42:47;;;;;;;6.13;2.57;;;;;;;11.63;100.00;102579.69;5081826;28;20187;-68
2023/05/23 06:45:12;;;;;;;12.40;3.00;;;;;;;12.26;100.00;102658.19;5078853;28;20189;-68
2023/05/23 06:47:38;;;;;;;7.47;2.83;;;;;;;12.03;100.00;102594.25;5062356;28;20212;-68
2023/05/23 06:50:04;;;;;;;16.63;3.23;;;;;;;12.37;100.00;102647.94;5081727;28;20186;-68
2023/05/23 06:52:30;;;;;;;12.10;3.80;;;;;;;12.18;100.00;102657.19;5059296;28;20231;-68
2023/05/23 06:54:55;;;;;;;8.43;3.17;;;;;;;12.05;100.00;102650.59;5074173;28;20539;-68
2023/05/23 06:57:20;;;;;;;10.83;3.00;;;;;;;12.15;100.00;102673.66;5072517;28;20195;-69
2023/05/23 06:59:46;;;;;;;7.57;3.10;;;;;;;12.18;100.00;102672.47;5075190;28;20230;-69
2023/05/23 07:02:11;;;;;;;7.70;3.23;;;;;;;12.29;100.00;102657.84;5082298;28;20651;-69
2023/05/23 07:04:37;;;;;;;10.83;2.67;;;;;;;11.74;100.00;102543.59;5084586;28;20183;-68
2023/05/23 07:07:02;;;;;;;11.07;3.13;;;;;;;12.29;100.00;102583.34;5076972;28;20652;-67
2023/05/23 07:09:28;;;;;;;11.63;2.70;;;;;;;12.09;100.00;102507.53;5077746;28;20190;-68
2023/05/23 07:11:53;;;;;;;8.20;3.30;;;;;;;12.57;100.00;102515.72;5070191;28;20655;-68
2023/05/23 07:14:19;;;;;;;8.03;2.87;;;;;;;12.14;100.00;102489.03;5081261;28;20217;-68
2023/05/23 07:16:45;;;;;;;12.83;3.50;;;;;;;11.81;100.00;102438.94;5061436;28;20197;-69
2023/05/23 07:19:12;;;;;;;12.93;2.80;;;;;;;12.04;100.00;102491.06;5084281;28;20436;-68
2023/05/23 07:21:37;;;;;;;10.57;2.90;;;;;;;12.53;100.00;102568.25;5063272;28;20647;-69
2023/05/23 07:24:03;;;;;;;13.43;3.70;;;;;;;11.93;100.00;102451.91;5078563;28;20447;-68
2023/05/23 07:26:28;;;;;;;10.80;3.30;;;;;;;12.37;100.00;102509.88;5083057;28;20187;-68
2023/05/23 07:28:53;;;;;;;11.60;3.37;;;;;;;12.60;100.00;102491.16;5072726;28;20751;-68
2023/05/23 07:31:19;;;;;;;11.90;3.20;;;;;;;11.82;100.00;102363.47;5086136;28;20581;-69
2023/05/23 07:33:44;;;;;;;15.77;4.27;;;;;;;12.38;100.00;102472.03;5076429;28;20198;-68
2023/05/23 07:36:10;;;;;;;8.90;3.10;;;;;;;12.18;100.00;102443.81;5084552;28;20182;-68
2023/05/23 07:38:36;;;;;;;11.13;3.10;;;;;;;11.76;100.00;102358.78;5063831;28;20192;-68
2023/05/23 07:41:01;;;;;;;10.63;3.40;;;;;;;12.54;100.00;102422.72;5068157;28;20540;-68
2023/05/23 07:43:26;;;;;;;12.67;3.57;;;;;;;12.35;100.00;102406.94;5079105;28;20269;-69
2023/05/23 07:45:52;;;;;;;15.33;4.17;;;;;;;12.10;100.00;102369.34;5084098;28;20186;-69
2023/05/23 07:48:18;;;;;;;18.47;4.47;;;;;;;12.26;100.00;102456.41;5079780;28;20220;-68
2023/05/23 07:50:43;;;;;;;14.30;3.50;;;;;;;12.22;100.00;102453.22;5079011;28;20219;-68
2023/05/23 07:53:09;;;;;;;16.23;3.97;;;;;;;11.98;100.00;102419.97;5060120;28;20470;-68
2023/05/23 07:55:34;;;;;;;13.97;3.80;;;;;;;12.48;100.00;102509.53;5080421;28;20197;-69
2023/05/23 07:58:00;;;;;;;12.13;3.90;;;;;;;12.02;100.00;102409.69;5080277;28;20235;-69
2023/05/23 08:00:25;;;;;;;18.23;4.50;;;;;;;12.61;100.00;102430.91;5062083;28;20214;-68
2023/05/23 08:02:51;;;;;;;12.10;3.47;;;;;;;12.43;100.00;102388.91;5077788;28;20194;-68
2023/05/23 08:05:18;;;;;;;12.23;3.87;;;;;;;11.92;100.00;102291.59;5076330;28;20205;-68
2023/05/23 08:07:43;;;;;;;17.17;4.27;;;;;;;12.61;100.00;102412.06;5058505;28;20199;-69
2023/05/23 08:10:09;;;;;;;12.13;3.57;;;;;;;11.96;100.00;102319.78;5061871;28;20460;-69
2023/05/23 08:12:35;;;;;;;12.80;3.40;;;;;;;12.39;100.00;102341.84;5072540;28;20551;-69
2023/05/23 08:15:00;;;;;;;9.47;3.30;;;;;;;12.69;100.00;102406.66;5077223;28;20438;-69
2023/05/23 08:17:26;;;;;;;7.83;3.37;;;;;;;12.80;100.00;102403.59;5079472;28;20261;-69
2023/05/23 08:19:52;;;;;;;10.60;3.23;;;;;;;12.33;100.00;102288.75;5066858;28;20703;-68
2023/05/23 08:22:17;;;;;;;12.60;4.20;;;;;;;12.62;100.00;102350.00;5081868;28;20441;-68
2023/05/23 08:24:43;;;;;;;10.57;3.77;;;;;;;12.89;100.00;102393.63;5056263;28;20288;-68
2023/05/23 08:27:08;;;;;;;12.47;4.27;;;;;;;12.89;100.00;102421.38;5082776;28;20202;-69
2023/05/23 08:29:37;;;;;;;10.60;3.97;;;;;;;12.87;100.00;102434.22;5079145;28;20242;-68
2023/05/23 08:32:02;;;;;;;11.07;3.30;;;;;;;12.40;100.00;102361.53;5062764;28;20595;-69
2023/05/23 08:34:28;;;;;;;11.93;4.10;;;;;;;12.93;100.00;102432.66;5084240;28;20429;-68
2023/05/23 08:36:53;;;;;;;12.97;3.30;;;;;;;13.17;100.00;102401.22;5087326;28;20178;-68
2023/05/23 08:39:19;;;;;;;10.20;3.53;;;;;;;13.10;100.00;102401.06;5084962;28;20669;-68
2023/05/23 08:41:45;;;;;;;11.63;3.53;;;;;;;12.91;100.00;102371.91;5078613;28;20289;-69
2023/05/23 08:44:10;;;;;;;12.53;3.80;;;;;;;12.80;100.00;102365.91;5072807;28;20206;-68
2023/05/23 08:46:44;;;;;;;15.30;4.30;;;;;;;12.42;100.00;102341.50;5079564;28;20531;-69
2023/05/23 08:49:13;;;;;;;9.93;3.63;;;;;;;12.69;100.00;102393.19;5060573;28;20195;-69
2023/05/23 08:51:42;;;;;;;14.20;3.70;;;;;;;12.93;100.00;102410.25;5060925;28;20472;-69
2023/05/23 08:54:11;;;;;;;15.43;3.27;;;;;;;12.96;100.00;102394.59;5058551;28;21077;-70
2023/05/23 08:56:37;;;;;;;12.03;4.00;;;;;;;12.57;100.00;102292.31;5058595;28;20545;-68
2023/05/23 08:59:03;;;;;;;11.67;4.17;;;;;;;12.93;100.00;102324.06;5080158;28;20922;-68
2023/05/23 09:01:30;;;;;;;9.00;3.27;;;;;;;12.97;100.00;102317.34;5080827;28;20201;-68
2023/05/23 09:03:59;;;;;;;11.63;4.40;;;;;;;13.40;100.00;102420.13;5076132;28;20444;-70
2023/05/23 09:06:24;;;;;;;16.83;4.47;;;;;;;13.26;100.00;102419.03;5057694;28;20447;-69
2023/05/23 09:08:50;;;;;;;11.70;3.00;;;;;;;12.41;100.00;102260.94;5081742;28;20469;-69
2023/05/23 09:11:15;;;;;;;15.53;4.07;;;;;;;12.54;100.00;102323.13;5074093;28;20219;-69
2023/05/23 09:13:41;;;;;;;8.03;2.80;;;;;;;12.88;100.00;102395.47;5058644;28;20701;-69
2023/05/23 09:16:09;;;;;;;10.20;4.10;;;;;;;13.19;100.00;102444.97;5074781;28;20175;-69
2023/05/23 09:18:37;;;;;;;15.53;4.27;;;;;;;12.81;100.00;102399.03;5062664;28;20570;-69
2023/05/23 09:21:03;;;;;;;10.00;3.57;;;;;;;12.69;100.00;102347.44;5079064;28;20464;-69
2023/05/23 09:23:33;;;;;;;10.97;3.40;;;;;;;13.24;100.00;102389.53;5080652;28;20444;-69
2023/05/23 09:26:06;;;;;;;11.73;3.47;;;;;;;12.99;100.00;102351.16;5074583;28;20432;-69
2023/05/23 09:28:33;;;;;;;9.53;3.33;;;;;;;13.34;100.00;102392.03;5081420;28;20496;-69
2023/05/23 09:31:00;;;;;;;9.40;3.50;;;;;;;13.23;100.00;102430.16;5065000;28;20819;-69
2023/05/23 09:33:35;;;;;;;12.10;3.47;;;;;;;12.65;100.00;102329.97;5075732;28;20981;-69
2023/05/23 09:36:02;;;;;;;10.13;3.80;;;;;;;13.30;100.00;102431.13;5058780;28;20501;-69
2023/05/23 09:38:28;;;;;;;16.63;4.17;;;;;;;13.36;100.00;102394.53;5074985;28;20541;-69
2023/05/23 09:40:55;;;;;;;12.03;4.03;;;;;;;13.25;100.00;102363.41;5053253;28;21003;-70
2023/05/23 09:43:21;;;;;;;13.03;2.87;;;;;;;13.59;100.00;102408.84;5065349;28;20186;-69
2023/05/23 09:45:46;;;;;;;11.20;3.67;;;;;;;13.45;100.00;102444.69;5061447;28;20470;-70
2023/05/23 09:48:12;;;;;;;12.07;3.10;;;;;;;12.90;100.00;102344.13;5075569;28;20264;-69
2023/05/23 09:50:38;;;;;;;13.43;4.00;;;;;;;12.62;100.00;102319.56;5055802;28;20211;-69
2023/05/23 09:53:04;;;;;;;11.50;3.93;;;;;;;12.71;100.00;102350.81;5065386;28;20451;-69
2023/05/23 09:55:29;;;;;;;13.40;3.60;;;;;;;12.92;100.00;102357.41;5080258;28;20194;-69
2023/05/23 09:57:58;;;;;;;12.00;3.90;;;;;;;13.53;100.00;102409.56;5084777;28;20584;-69
2023/05/23 10:00:24;;;;;;;9.03;3.53;;;;;;;13.49;100.00;102408.28;5081142;28;20206;-69
2023/05/23 10:03:00;;;;;;;9.80;3.20;;;;;;;12.98;100.00;102327.06;5064207;28;20445;-68
2023/05/23 10:05:34;;;;;;;10.00;3.57;;;;;;;13.65;100.00;102389.25;5058292;28;21311;-69
2023/05/23 10:08:06;;;;;;;12.90;3.37;;;;;;;12.81;100.00;102321.78;5061025;28;20463;-69
2023/05/23 10:10:32;;;;;;;10.47;3.47;;;;;;;12.99;100.00;102323.34;5067096;28;20497;-69
2023/05/23 10:13:03;;;;;;;10.57;2.80;;;;;;;13.14;100.00;102362.00;5071705;28;20420;-69
2023/05/23 10:15:35;;;;;;;8.33;3.30;;;;;;;13.08;100.00;102351.94;5058799;28;20442;-69
2023/05/23 10:18:20;;;;;;;8.73;3.50;;;;;;;13.69;100.00;102441.81;5067159;28;20441;-69
2023/05/23 10:20:52;;;;;;;12.20;3.30;;;;;;;13.71;100.00;102426.31;5079392;28;20559;-70
2023/05/23 10:23:17;;;;;;;8.90;3.27;;;;;;;13.73;100.00;102423.41;5084520;28;20451;-70
2023/05/23 10:25:44;;;;;;;12.60;3.53;;;;;;;13.16;100.00;102327.63;5083780;28;20444;-69
2023/05/23 10:28:12;;;;;;;11.20;3.10;;;;;;;12.65;100.00;102260.81;5060845;28;20218;-69
2023/05/23 10:30:38;;;;;;;10.40;3.60;;;;;;;13.67;100.00;102419.59;5079477;28;20466;-69
2023/05/23 10:33:05;;;;;;;11.37;3.40;;;;;;;12.80;100.00;102260.03;5063122;28;20816;-69
2023/05/23 10:36:17;;;;;;;13.07;3.53;;;;;;;13.56;100.00;102388.47;5079827;28;20440;-69
2023/05/23 10:39:17;;;;;;;10.83;3.57;;;;;;;13.85;100.00;102413.03;5030574;28;20443;-69
2023/05/23 10:41:54;;;;;;;9.87;3.13;;;;;;;13.67;100.00;102302.81;5081518;28;20456;-69
2023/05/23 10:44:28;;;;;;;8.10;3.40;;;;;;;13.60;100.00;102318.88;5091112;28;20427;-68
2023/05/23 10:47:01;;;;;;;6.93;3.37;;;;;;;13.16;100.00;102316.84;5082990;28;20466;-68
2023/05/23 10:49:46;;;;;;;13.33;3.17;;;;;;;13.02;100.00;102304.19;5078214;28;20437;-69
2023/05/23 10:52:18;;;;;;;12.07;3.30;;;;;;;13.76;100.00;102396.09;5056480;28;20877;-68
2023/05/23 10:54:47;;;;;;;11.53;3.70;;;;;;;13.75;100.00;102330.53;5065439;28;20441;-69
2023/05/23 10:57:16;;;;;;;12.57;2.97;;;;;;;13.50;100.00;102292.16;5075495;28;20436;-69
2023/05/23 10:59:42;;;;;;;11.30;3.13;;;;;;;13.61;100.00;102279.28;5055789;28;21067;-69
2023/05/23 11:02:14;;;;;;;9.03;3.43;;;;;;;13.71;100.00;102244.78;5082154;28;20562;-70
2023/05/23 11:04:41;;;;;;;12.80;4.10;;;;;;;14.11;100.00;102293.91;5056712;28;20219;-69
2023/05/23 11:07:29;;;;;;;9.63;3.67;;;;;;;14.20;100.00;102307.13;5061515;28;20505;-69
2023/05/23 11:10:04;;;;;;;12.43;3.67;;;;;;;14.14;100.00;102318.63;5084145;28;20436;-69